Aérodrome :
LOGIN :

S'inscrire | Disclaimer

   EN    FR    IT 

 










Légende :    VFR   VFR Marginal   IFR   IFR Intensif   IFR Très Intensif
Visi : 
Plafond : 
>= 8 km
>= 3000ft
5 à 8 km
1000 à 3000 ft
1500m à 5 km
500 à 1000 ft
800 à 1500m
200 à 500 ft
< 800m
< 200 ft
Symboles :   Orages  Brouillard  Fortes neiges  Fortes précipitations  Vent > 20 kt
SIGMETs :   Divers  Orages  Givrage  Turbulence  Onde Orograph.  Cendres Volcan.






- Altitude de l'aérodrome : 106 ft
- Code IATA : NRN


EDLV - Weeze

DERNIER METAR :
  • 210550Z 08004KT 040V130 4500 BR BKN004 02/01 Q1011

METARs EXPIRÉS :
  • 210520Z VRB05KT 4500 BR BKN004 02/02 Q1011
  • 210450Z 08004KT 040V130 4300 BR BKN004 02/01 Q1011
  • 210420Z 08004KT 020V130 4100 BR BKN003 01/01 Q1011
  • 210350Z 09004KT 020V160 3700 BR BKN002 01/01 Q1011

TAF TAF EDLV
Valide du 21 à 06h jusqu'au 22 à 06h UTC


210500Z 2106/2206 08005KT 4000 BR BKN005
TEMPO 2106/2109 0500 FG OVC001
BECMG 2109/2112 8000 BKN015
TEMPO 2112/2203 4000 BR
BECMG 2118/2121 14007KT



MET'MAP, la Météo Aéronautique d'un coup d'oeil ! - Copyright ORBIFLY Décembre 2007 - Disclaimer

ORBIFLY MET'MAP TEAM :

Programmation & Développement : Alexandra Zaïnal
Conception & Développement : Baudouin d'Aumeries
Co-Programmation & Développement : Marc-Olivier Méhu
Soutien technique & logistique : Manuel Goepfert

Contact : metmap@orbifly.com




SOURCES & CREDITS :

   NOAA